Time;durP1;ratioP1;P1;durP2;ratioP2;P2;SDS_P1;SDS_P2;PMS_P1;PMS_P2;Temp;Humidity;BMP_temperature;BMP_pressure;BME280_temperature;BME280_humidity;BME280_pressure;Samples;Min_cycle;Max_cycle;Signal;HPM_P1;HPM_P2
2021/05/25 00:00:29;;;;;;;1.00;0.70;;;9.30;99.90;;;;;;5036677;28;20449;-56
2021/05/25 00:02:56;;;;;;;2.43;0.80;;;9.30;99.90;;;;;;5050501;28;20516;-57
2021/05/25 00:05:26;;;;;;;2.43;0.70;;;9.30;99.90;;;;;;5051959;28;20466;-57
2021/05/25 00:07:54;;;;;;;1.07;0.77;;;9.30;99.90;;;;;;5051407;28;20494;-57
2021/05/25 00:10:22;;;;;;;1.37;0.70;;;9.50;99.90;;;;;;5051894;28;20523;-58
2021/05/25 00:12:49;;;;;;;0.73;0.60;;;9.50;99.90;;;;;;5050551;28;20504;-57
2021/05/25 00:15:19;;;;;;;1.47;0.90;;;9.70;99.90;;;;;;5051040;28;20448;-57
2021/05/25 00:17:46;;;;;;;0.80;0.60;;;9.70;99.90;;;;;;5051526;28;20527;-58
2021/05/25 00:20:14;;;;;;;1.30;0.80;;;9.90;99.90;;;;;;5051795;28;20546;-57
2021/05/25 00:22:41;;;;;;;1.33;0.80;;;9.90;99.90;;;;;;5051552;28;20463;-57
2021/05/25 00:25:09;;;;;;;1.00;0.60;;;9.90;99.90;;;;;;5051615;28;20451;-57
2021/05/25 00:27:37;;;;;;;1.00;0.90;;;9.90;99.90;;;;;;5051101;28;20520;-57
2021/05/25 00:30:06;;;;;;;1.67;0.80;;;9.90;99.90;;;;;;5051570;28;20450;-57
2021/05/25 00:32:33;;;;;;;3.90;0.80;;;9.80;99.90;;;;;;5051525;28;21191;-56
2021/05/25 00:35:00;;;;;;;1.10;0.70;;;9.70;99.90;;;;;;5051295;28;20450;-57
2021/05/25 00:37:26;;;;;;;1.87;0.83;;;9.80;99.90;;;;;;5051569;28;20447;-57
2021/05/25 00:39:53;;;;;;;1.07;0.97;;;9.80;99.90;;;;;;5050667;28;20451;-57
2021/05/25 00:42:20;;;;;;;1.63;0.70;;;9.70;99.90;;;;;;5050971;28;20458;-57
2021/05/25 00:44:47;;;;;;;1.10;0.70;;;9.90;99.90;;;;;;5051156;28;20869;-57
2021/05/25 00:47:14;;;;;;;1.10;0.90;;;9.80;99.90;;;;;;5051013;28;20501;-57
2021/05/25 00:49:40;;;;;;;1.07;0.80;;;9.80;99.90;;;;;;5051719;28;20455;-57
2021/05/25 00:52:07;;;;;;;0.80;0.80;;;10.00;99.90;;;;;;5051438;28;20455;-57
2021/05/25 00:54:34;;;;;;;1.07;0.80;;;10.00;99.90;;;;;;5044864;28;20833;-56
2021/05/25 00:57:00;;;;;;;2.03;1.00;;;9.90;99.90;;;;;;5051285;28;20459;-57
2021/05/25 00:59:28;;;;;;;1.63;0.90;;;9.80;99.90;;;;;;5054606;28;20474;-57
2021/05/25 01:01:55;;;;;;;1.47;0.80;;;9.80;99.90;;;;;;5053710;28;20821;-57
2021/05/25 01:04:22;;;;;;;1.43;1.03;;;9.80;99.90;;;;;;5053977;28;20447;-57
2021/05/25 01:06:49;;;;;;;1.00;1.00;;;9.70;99.90;;;;;;5054284;28;20562;-57
2021/05/25 01:09:17;;;;;;;0.63;0.60;;;9.70;99.90;;;;;;5037056;28;20503;-57
2021/05/25 01:11:45;;;;;;;3.10;1.17;;;9.90;99.90;;;;;;5041543;28;20467;-57
2021/05/25 01:14:12;;;;;;;1.77;0.90;;;9.80;99.90;;;;;;5054608;28;20475;-57
2021/05/25 01:16:39;;;;;;;1.83;0.80;;;9.90;99.90;;;;;;5054688;28;20447;-56
2021/05/25 01:19:07;;;;;;;1.30;1.00;;;9.80;99.90;;;;;;5054476;28;20993;-56
2021/05/25 01:21:38;;;;;;;1.50;1.00;;;9.50;99.90;;;;;;5051675;28;20474;-57
2021/05/25 01:24:05;;;;;;;2.37;1.07;;;9.60;99.90;;;;;;5051370;28;20455;-57
2021/05/25 01:26:32;;;;;;;0.83;0.83;;;9.50;99.90;;;;;;5051236;28;20454;-56
2021/05/25 01:28:58;;;;;;;0.90;0.90;;;9.50;99.90;;;;;;5051359;28;20484;-56
2021/05/25 01:31:25;;;;;;;1.60;0.90;;;9.30;99.90;;;;;;5051440;28;20550;-56
2021/05/25 01:33:51;;;;;;;1.40;0.90;;;9.10;99.90;;;;;;5054489;28;20500;-57
2021/05/25 01:36:18;;;;;;;1.37;1.00;;;9.10;99.90;;;;;;5054439;28;20454;-56
2021/05/25 01:38:45;;;;;;;3.60;1.00;;;9.20;99.90;;;;;;5054705;28;20974;-57
2021/05/25 01:41:12;;;;;;;1.10;1.00;;;9.30;99.90;;;;;;5055342;28;20458;-57
2021/05/25 01:43:39;;;;;;;1.50;1.10;;;9.50;99.90;;;;;;5054979;28;20451;-56
2021/05/25 01:46:05;;;;;;;1.97;0.77;;;9.50;99.90;;;;;;5054674;28;20447;-57
2021/05/25 01:48:32;;;;;;;2.13;0.80;;;9.60;99.90;;;;;;5054434;28;20514;-56
2021/05/25 01:50:59;;;;;;;1.20;0.80;;;9.80;99.90;;;;;;5054114;28;20951;-56
2021/05/25 01:53:27;;;;;;;1.20;0.80;;;9.70;99.90;;;;;;5054751;28;20950;-57
2021/05/25 01:55:56;;;;;;;2.23;0.80;;;9.90;99.90;;;;;;5054756;28;20447;-57
2021/05/25 01:58:25;;;;;;;1.03;0.80;;;10.00;99.90;;;;;;5054052;28;20471;-57
2021/05/25 02:00:54;;;;;;;0.90;0.80;;;10.00;99.90;;;;;;5049646;28;20478;-57
2021/05/25 02:03:20;;;;;;;2.60;0.80;;;10.00;99.90;;;;;;5054661;28;20513;-57
2021/05/25 02:05:47;;;;;;;1.27;0.73;;;9.90;99.90;;;;;;5054031;28;20551;-57
2021/05/25 02:08:15;;;;;;;1.20;0.70;;;9.90;99.90;;;;;;5064777;22;21338;-53
2021/05/25 02:10:42;;;;;;;2.67;0.80;;;9.90;99.90;;;;;;5053495;28;20472;-51
2021/05/25 02:13:11;;;;;;;2.73;0.80;;;9.90;99.90;;;;;;5054196;28;20816;-51
2021/05/25 02:15:39;;;;;;;3.40;0.70;;;10.00;99.90;;;;;;5054053;28;20447;-51
2021/05/25 02:18:08;;;;;;;1.50;0.87;;;10.10;99.90;;;;;;5054305;28;20447;-51
2021/05/25 02:20:36;;;;;;;1.13;0.80;;;10.00;99.90;;;;;;5033910;28;20476;-51
2021/05/25 02:23:02;;;;;;;1.97;0.60;;;9.90;99.90;;;;;;5033739;28;20460;-51
2021/05/25 02:25:29;;;;;;;2.57;0.63;;;10.00;99.90;;;;;;5034131;28;20444;-50
2021/05/25 02:27:56;;;;;;;1.90;1.30;;;9.80;99.90;;;;;;5033923;28;20534;-50
2021/05/25 02:30:24;;;;;;;2.70;0.90;;;9.80;99.90;;;;;;5043618;28;20472;-50
2021/05/25 02:32:50;;;;;;;1.57;0.80;;;9.80;99.90;;;;;;5033948;28;20502;-51
2021/05/25 02:35:17;;;;;;;2.67;0.90;;;9.90;99.90;;;;;;5033432;28;20834;-51
2021/05/25 02:37:44;;;;;;;2.80;1.47;;;9.90;99.90;;;;;;5033546;28;21087;-51
2021/05/25 02:40:11;;;;;;;1.57;0.70;;;9.80;99.90;;;;;;5033247;28;20526;-51
2021/05/25 02:42:38;;;;;;;0.90;0.77;;;9.90;99.90;;;;;;5033447;28;20538;-51
2021/05/25 02:45:06;;;;;;;1.80;0.80;;;10.00;99.90;;;;;;5035659;28;20506;-51
2021/05/25 02:47:34;;;;;;;4.60;0.80;;;9.90;99.90;;;;;;5033630;28;20507;-50
2021/05/25 02:50:06;;;;;;;3.10;0.80;;;9.90;99.90;;;;;;5033456;28;20471;-51
2021/05/25 02:52:33;;;;;;;0.97;0.80;;;9.90;99.90;;;;;;5033640;28;20452;-51
2021/05/25 02:55:00;;;;;;;3.50;0.60;;;10.00;99.90;;;;;;5033191;28;20958;-51
2021/05/25 02:57:26;;;;;;;2.30;1.57;;;10.10;99.90;;;;;;5033301;28;20456;-51
2021/05/25 02:59:53;;;;;;;7.60;0.97;;;10.20;99.90;;;;;;5034464;28;20489;-51
2021/05/25 03:02:19;;;;;;;1.77;0.80;;;10.20;99.90;;;;;;5035846;28;20463;-51
2021/05/25 03:04:47;;;;;;;1.07;0.87;;;10.20;99.90;;;;;;5033118;28;20506;-51
2021/05/25 03:07:13;;;;;;;1.47;0.70;;;10.20;99.90;;;;;;5033288;28;20476;-50
2021/05/25 03:09:40;;;;;;;1.97;0.80;;;10.30;99.90;;;;;;5033197;28;20989;-51
2021/05/25 03:12:07;;;;;;;1.67;0.87;;;10.30;99.90;;;;;;5033213;28;20459;-51
2021/05/25 03:14:34;;;;;;;4.30;1.20;;;10.30;99.90;;;;;;5032850;28;20499;-51
2021/05/25 03:17:01;;;;;;;2.70;0.90;;;10.20;99.90;;;;;;5037155;28;20823;-51
2021/05/25 03:19:27;;;;;;;1.07;0.70;;;10.10;99.90;;;;;;5052700;28;20897;-51
2021/05/25 03:21:55;;;;;;;2.40;0.80;;;10.10;99.90;;;;;;5043984;28;20505;-51
2021/05/25 03:24:22;;;;;;;1.57;0.70;;;10.20;99.90;;;;;;5052783;28;20452;-51
2021/05/25 03:26:49;;;;;;;2.50;1.13;;;10.20;99.90;;;;;;5045310;28;20464;-51
2021/05/25 03:29:15;;;;;;;2.37;0.80;;;10.00;99.90;;;;;;5032398;28;20967;-51
2021/05/25 03:31:42;;;;;;;1.93;1.67;;;10.00;99.90;;;;;;5033734;28;20444;-51
2021/05/25 03:34:11;;;;;;;2.60;0.80;;;9.80;99.90;;;;;;5032727;28;20450;-50
2021/05/25 03:36:38;;;;;;;1.33;0.80;;;9.70;99.90;;;;;;5031735;28;20452;-51
2021/05/25 03:39:09;;;;;;;3.00;1.37;;;9.80;99.90;;;;;;5043276;28;20467;-50
2021/05/25 03:41:35;;;;;;;1.43;0.83;;;10.00;99.90;;;;;;5032956;28;20452;-50
2021/05/25 03:44:06;;;;;;;1.70;0.80;;;10.00;99.90;;;;;;5032198;28;20452;-50
2021/05/25 03:46:32;;;;;;;2.97;0.80;;;10.10;99.90;;;;;;5032772;28;20819;-51
2021/05/25 03:48:59;;;;;;;3.90;0.70;;;10.00;99.90;;;;;;5032617;28;20511;-50
2021/05/25 03:51:26;;;;;;;2.60;0.90;;;10.20;99.90;;;;;;5032703;28;20444;-50
2021/05/25 03:53:53;;;;;;;1.73;0.80;;;10.20;99.90;;;;;;5032406;28;21012;-50
2021/05/25 03:56:28;;;;;;;1.20;0.80;;;10.30;99.90;;;;;;5031582;28;20457;-50
2021/05/25 03:58:54;;;;;;;1.63;0.70;;;10.40;99.90;;;;;;5031995;28;20479;-50
2021/05/25 04:01:23;;;;;;;4.73;0.90;;;10.40;99.90;;;;;;5031087;28;20444;-50
2021/05/25 04:03:51;;;;;;;1.93;1.10;;;10.50;99.90;;;;;;5032174;28;20448;-50
2021/05/25 04:06:19;;;;;;;2.60;0.80;;;10.40;99.90;;;;;;5032123;28;20453;-50
2021/05/25 04:08:46;;;;;;;1.50;0.87;;;10.50;99.90;;;;;;5031163;28;20492;-50
2021/05/25 04:11:14;;;;;;;1.37;0.60;;;10.50;99.90;;;;;;5032094;28;20857;-50
2021/05/25 04:13:42;;;;;;;1.37;0.80;;;10.60;99.90;;;;;;5032113;28;20445;-50
2021/05/25 04:16:10;;;;;;;1.50;0.77;;;10.50;99.90;;;;;;5032019;28;20451;-51
2021/05/25 04:18:37;;;;;;;3.23;0.77;;;10.60;99.90;;;;;;5032155;28;20960;-50
2021/05/25 04:21:04;;;;;;;2.80;0.80;;;10.50;99.90;;;;;;5031914;28;20825;-50
2021/05/25 04:23:31;;;;;;;2.87;0.73;;;10.50;99.90;;;;;;5031430;28;20451;-50
2021/05/25 04:25:58;;;;;;;1.23;0.80;;;10.60;99.90;;;;;;5031630;28;20459;-50
2021/05/25 04:28:25;;;;;;;1.50;1.40;;;10.50;99.90;;;;;;5031969;28;20491;-50
2021/05/25 04:30:53;;;;;;;3.17;1.60;;;10.30;99.90;;;;;;5031739;28;20449;-50
2021/05/25 04:33:20;;;;;;;3.03;1.80;;;10.20;99.90;;;;;;5031246;28;20449;-50
2021/05/25 04:35:47;;;;;;;2.77;2.00;;;10.20;99.90;;;;;;5031620;28;20560;-50
2021/05/25 04:38:14;;;;;;;3.83;1.60;;;10.10;99.90;;;;;;5031675;28;20452;-51
2021/05/25 04:40:41;;;;;;;3.40;1.70;;;10.20;99.90;;;;;;5032037;28;20457;-51
2021/05/25 04:43:10;;;;;;;4.07;2.07;;;10.40;99.90;;;;;;5031771;28;20519;-51
2021/05/25 04:45:38;;;;;;;2.20;1.60;;;10.30;99.90;;;;;;5031063;28;20460;-50
2021/05/25 04:48:06;;;;;;;2.30;1.50;;;10.30;99.90;;;;;;5011923;28;20484;-51
2021/05/25 04:50:33;;;;;;;2.93;1.20;;;10.40;99.90;;;;;;5011981;28;20459;-51
2021/05/25 04:53:00;;;;;;;2.20;1.20;;;10.40;99.90;;;;;;5011775;28;20449;-51
2021/05/25 04:55:26;;;;;;;2.03;1.30;;;10.50;99.90;;;;;;5029825;28;20483;-51
2021/05/25 04:57:54;;;;;;;2.93;1.60;;;10.60;99.90;;;;;;5031660;28;20451;-51
2021/05/25 05:00:23;;;;;;;4.70;1.43;;;10.40;99.90;;;;;;5030974;28;20475;-50
2021/05/25 05:02:50;;;;;;;4.60;1.27;;;10.50;99.90;;;;;;5031344;28;20510;-50
2021/05/25 05:05:18;;;;;;;3.93;1.20;;;10.60;99.90;;;;;;5031278;28;20457;-51
2021/05/25 05:07:46;;;;;;;2.23;1.20;;;10.50;99.90;;;;;;5033946;28;20488;-51
2021/05/25 05:10:13;;;;;;;2.80;0.83;;;10.40;99.90;;;;;;5035331;28;20912;-51
2021/05/25 05:12:40;;;;;;;1.57;0.80;;;10.50;99.90;;;;;;5034971;28;20441;-51
2021/05/25 05:15:08;;;;;;;1.00;0.90;;;10.50;99.90;;;;;;5035971;28;20455;-51
2021/05/25 05:17:34;;;;;;;1.13;0.90;;;10.60;99.90;;;;;;5035253;28;20456;-50
2021/05/25 05:20:02;;;;;;;3.37;1.10;;;10.60;99.90;;;;;;5034653;28;20526;-51
2021/05/25 05:22:29;;;;;;;3.37;1.50;;;10.40;99.90;;;;;;5035346;28;20475;-51
2021/05/25 05:24:56;;;;;;;3.63;1.13;;;10.60;99.90;;;;;;5035090;28;20444;-51
2021/05/25 05:27:23;;;;;;;2.33;1.03;;;10.50;99.90;;;;;;5034767;28;20868;-51
2021/05/25 05:29:49;;;;;;;1.63;1.13;;;10.50;99.90;;;;;;5035020;28;20503;-51
2021/05/25 05:32:16;;;;;;;1.37;0.90;;;10.40;99.90;;;;;;5035106;28;20443;-51
2021/05/25 05:34:43;;;;;;;1.70;1.00;;;10.30;99.90;;;;;;5034460;28;20472;-51
2021/05/25 05:37:09;;;;;;;3.33;0.93;;;10.20;99.90;;;;;;5034935;28;20449;-51
2021/05/25 05:39:36;;;;;;;1.00;0.90;;;10.10;99.90;;;;;;5034900;28;20476;-50
2021/05/25 05:42:04;;;;;;;2.07;0.80;;;10.20;99.90;;;;;;5034709;28;20452;-51
2021/05/25 05:44:30;;;;;;;2.90;1.03;;;10.20;99.90;;;;;;5034573;28;20455;-51
2021/05/25 05:46:57;;;;;;;0.90;0.70;;;10.10;99.90;;;;;;5034719;28;20455;-51
2021/05/25 05:49:23;;;;;;;0.80;0.60;;;10.10;99.90;;;;;;5034362;28;20465;-51
2021/05/25 05:51:50;;;;;;;9.50;1.13;;;10.20;99.90;;;;;;5034448;28;20462;-51
2021/05/25 05:54:17;;;;;;;1.00;0.83;;;10.30;99.90;;;;;;5034160;28;20455;-51
2021/05/25 05:56:47;;;;;;;2.03;1.00;;;10.40;99.90;;;;;;5033808;28;20475;-51
2021/05/25 05:59:13;;;;;;;2.23;0.90;;;10.40;99.90;;;;;;5034609;28;21047;-51
2021/05/25 06:01:40;;;;;;;1.67;0.70;;;10.50;99.90;;;;;;5033693;28;20452;-51
2021/05/25 06:04:09;;;;;;;2.77;0.90;;;10.50;99.90;;;;;;5034070;28;20618;-51
2021/05/25 06:06:35;;;;;;;1.33;1.10;;;10.60;99.90;;;;;;5025611;28;20444;-51
2021/05/25 06:09:02;;;;;;;2.20;1.13;;;10.70;99.90;;;;;;5034071;28;20489;-51
2021/05/25 06:11:29;;;;;;;1.67;1.07;;;10.70;99.90;;;;;;5034420;28;20463;-51
2021/05/25 06:13:57;;;;;;;3.30;1.00;;;10.80;99.90;;;;;;5043279;28;20455;-50
2021/05/25 06:16:23;;;;;;;2.93;1.30;;;10.90;99.90;;;;;;5036528;28;20449;-50
2021/05/25 06:18:50;;;;;;;4.30;1.73;;;10.90;99.90;;;;;;5033363;28;20460;-50
2021/05/25 06:21:17;;;;;;;1.60;1.30;;;11.00;99.90;;;;;;5034055;28;21032;-50
2021/05/25 06:23:43;;;;;;;3.63;1.80;;;11.10;99.90;;;;;;5034081;28;20627;-50
2021/05/25 06:26:10;;;;;;;3.27;1.77;;;11.20;99.90;;;;;;5034025;28;20444;-50
2021/05/25 06:28:36;;;;;;;3.50;1.70;;;11.40;99.90;;;;;;5033993;28;20518;-50
2021/05/25 06:31:04;;;;;;;3.97;1.80;;;11.60;99.90;;;;;;5033687;28;20440;-50
2021/05/25 06:33:30;;;;;;;5.23;2.03;;;11.70;99.90;;;;;;5033894;28;20444;-50
2021/05/25 06:35:57;;;;;;;6.47;1.60;;;11.70;99.90;;;;;;5033860;28;20448;-50
2021/05/25 06:38:23;;;;;;;3.37;1.97;;;11.80;99.90;;;;;;5033804;28;20828;-50
2021/05/25 06:40:50;;;;;;;4.73;1.20;;;11.60;99.90;;;;;;5033420;28;20811;-50
2021/05/25 06:43:16;;;;;;;1.73;1.40;;;11.60;99.90;;;;;;5033785;28;20956;-50
2021/05/25 06:45:43;;;;;;;2.53;0.90;;;11.50;99.90;;;;;;5033601;28;20938;-50
2021/05/25 06:48:10;;;;;;;1.63;1.10;;;11.80;99.90;;;;;;5032781;28;20483;-49
2021/05/25 06:50:37;;;;;;;3.50;1.20;;;12.00;99.90;;;;;;5033108;28;20449;-50
2021/05/25 06:53:03;;;;;;;3.53;1.20;;;12.10;99.90;;;;;;5032453;28;20441;-50
2021/05/25 06:55:31;;;;;;;3.37;1.30;;;12.00;99.90;;;;;;5032662;28;20455;-50
2021/05/25 06:57:58;;;;;;;7.00;1.47;;;11.80;99.90;;;;;;5032922;28;20485;-50
2021/05/25 07:00:24;;;;;;;2.47;1.50;;;12.00;99.90;;;;;;5033298;28;20882;-50
2021/05/25 07:02:51;;;;;;;1.60;1.27;;;12.40;99.90;;;;;;5033613;28;20452;-49
2021/05/25 07:05:18;;;;;;;2.93;1.27;;;13.70;99.90;;;;;;5033210;28;20448;-50
2021/05/25 07:07:45;;;;;;;1.60;0.90;;;14.70;99.90;;;;;;5032784;28;20993;-50
2021/05/25 07:10:12;;;;;;;4.70;1.53;;;14.50;99.90;;;;;;5025130;28;20491;-50
2021/05/25 07:12:38;;;;;;;3.40;1.07;;;14.00;99.90;;;;;;5037396;28;20453;-50
2021/05/25 07:15:06;;;;;;;2.83;0.97;;;13.80;99.90;;;;;;5032949;28;20448;-50
2021/05/25 07:17:33;;;;;;;3.80;1.10;;;13.20;99.90;;;;;;5032473;28;20445;-50
2021/05/25 07:19:59;;;;;;;4.73;0.83;;;13.00;99.90;;;;;;5045414;28;20895;-50
2021/05/25 07:22:27;;;;;;;2.73;1.20;;;12.70;99.90;;;;;;5042677;28;20483;-50
2021/05/25 07:24:53;;;;;;;4.70;1.63;;;12.70;99.90;;;;;;5046330;28;21023;-50
2021/05/25 07:27:21;;;;;;;2.17;1.10;;;12.00;99.90;;;;;;5028568;28;20485;-51
2021/05/25 07:29:48;;;;;;;3.00;0.90;;;11.90;99.90;;;;;;5031358;28;20896;-51
2021/05/25 07:32:15;;;;;;;3.53;1.30;;;12.00;99.90;;;;;;5031564;28;20460;-50
2021/05/25 07:34:41;;;;;;;2.43;0.90;;;11.90;99.90;;;;;;5021608;28;20559;-50
2021/05/25 07:37:08;;;;;;;0.97;0.83;;;12.00;99.90;;;;;;5033619;28;20457;-50
2021/05/25 07:39:36;;;;;;;1.83;0.97;;;12.00;99.90;;;;;;5052487;28;20460;-51
2021/05/25 07:42:02;;;;;;;3.73;0.97;;;12.50;99.90;;;;;;5044125;28;20860;-51
2021/05/25 07:44:29;;;;;;;1.67;1.03;;;13.00;99.90;;;;;;5032579;28;20464;-51
2021/05/25 07:46:57;;;;;;;1.90;0.70;;;13.60;99.90;;;;;;5032427;28;20460;-51
2021/05/25 07:49:23;;;;;;;2.00;0.77;;;14.40;99.90;;;;;;5032370;28;20492;-50
2021/05/25 07:51:51;;;;;;;6.67;1.00;;;15.20;99.90;;;;;;5032430;28;20826;-51
2021/05/25 07:54:20;;;;;;;1.57;0.77;;;15.80;99.90;;;;;;5040940;28;20448;-52
2021/05/25 07:56:48;;;;;;;3.63;1.03;;;16.70;99.90;;;;;;5027087;28;20464;-52
2021/05/25 07:59:15;;;;;;;1.50;0.70;;;17.20;99.90;;;;;;5029539;28;20464;-52
2021/05/25 08:01:42;;;;;;;2.20;0.90;;;17.90;99.90;;;;;;5032713;28;20472;-52
2021/05/25 08:04:09;;;;;;;3.65;1.00;;;18.00;99.90;;;;;;5025329;28;20449;-52
2021/05/25 08:06:36;;;;;;;0.83;0.80;;;18.60;99.90;;;;;;5031502;28;20206;-52
2021/05/25 08:09:04;;;;;;;4.27;1.20;;;18.80;99.90;;;;;;5031828;28;20499;-52
2021/05/25 08:11:31;;;;;;;2.13;0.77;;;18.50;99.90;;;;;;5031965;28;20452;-52
2021/05/25 08:13:58;;;;;;;1.43;0.90;;;18.60;99.90;;;;;;5032096;28;20460;-52
2021/05/25 08:16:28;;;;;;;1.80;0.80;;;18.20;99.90;;;;;;5031847;28;20475;-52
2021/05/25 08:19:07;;;;;;;1.87;0.80;;;17.90;99.10;;;;;;5025447;28;20465;-52
2021/05/25 08:21:34;;;;;;;1.73;0.80;;;18.00;99.90;;;;;;5023830;28;20497;-52
2021/05/25 08:24:00;;;;;;;1.40;0.70;;;18.10;98.90;;;;;;5077284;22;20503;-59
2021/05/25 08:26:27;;;;;;;2.03;0.80;;;17.90;99.70;;;;;;5052007;28;20937;-58
2021/05/25 08:28:54;;;;;;;2.80;1.13;;;18.00;98.70;;;;;;5074612;28;20502;-59
2021/05/25 08:31:21;;;;;;;1.87;0.80;;;18.80;98.00;;;;;;5056530;28;20448;-58
2021/05/25 08:33:48;;;;;;;1.60;0.70;;;18.80;96.80;;;;;;5053600;28;20468;-59
2021/05/25 08:36:16;;;;;;;2.60;0.87;;;19.00;95.90;;;;;;5054665;28;20500;-59
2021/05/25 08:38:43;;;;;;;1.20;0.90;;;18.30;96.00;;;;;;5073123;28;20454;-59
2021/05/25 08:41:11;;;;;;;3.17;1.00;;;17.30;96.90;;;;;;5051809;28;20447;-58
2021/05/25 08:43:37;;;;;;;2.90;1.10;;;16.10;97.10;;;;;;5054422;28;20472;-58
2021/05/25 08:46:05;;;;;;;2.20;0.80;;;15.00;99.90;;;;;;5054079;28;20565;-58
2021/05/25 08:48:32;;;;;;;1.73;0.70;;;14.60;99.90;;;;;;5067053;28;20501;-58
2021/05/25 08:51:00;;;;;;;3.10;0.80;;;14.00;99.90;;;;;;5052197;28;20447;-58
2021/05/25 08:53:29;;;;;;;2.70;0.90;;;13.60;99.90;;;;;;5063527;28;20471;-58
2021/05/25 08:55:56;;;;;;;3.83;0.80;;;13.10;99.90;;;;;;5052577;28;20542;-58
2021/05/25 08:58:24;;;;;;;1.30;0.70;;;12.90;99.90;;;;;;5051614;28;20474;-57
2021/05/25 09:00:53;;;;;;;1.23;0.60;;;12.90;99.90;;;;;;5051519;28;20447;-58
2021/05/25 09:03:20;;;;;;;1.40;0.60;;;12.90;99.90;;;;;;5051446;28;20529;-58
2021/05/25 09:05:55;;;;;;;2.30;0.90;;;13.00;99.90;;;;;;5051232;28;20450;-57
2021/05/25 09:08:22;;;;;;;3.33;0.93;;;13.80;99.90;;;;;;5051525;28;20541;-56
2021/05/25 09:10:49;;;;;;;1.60;0.60;;;14.30;99.90;;;;;;5051517;28;20451;-56
2021/05/25 09:13:17;;;;;;;1.20;0.80;;;14.30;99.90;;;;;;5051601;28;20467;-56
2021/05/25 09:15:45;;;;;;;0.93;0.63;;;14.40;99.90;;;;;;5051293;28;20498;-56
2021/05/25 09:18:13;;;;;;;2.80;0.83;;;14.90;99.90;;;;;;5051292;28;20448;-56
2021/05/25 09:20:45;;;;;;;0.80;0.77;;;15.50;99.90;;;;;;5051019;28;20455;-55
2021/05/25 09:23:15;;;;;;;4.13;1.10;;;16.20;99.90;;;;;;5051125;28;20491;-56
2021/05/25 09:25:52;;;;;;;1.00;0.60;;;16.20;99.90;;;;;;5050911;28;20459;-56
2021/05/25 09:28:19;;;;;;;1.00;0.70;;;16.40;99.70;;;;;;5051661;28;20549;-56
2021/05/25 09:30:47;;;;;;;1.97;0.63;;;16.60;99.20;;;;;;5051159;28;20451;-56
2021/05/25 09:33:15;;;;;;;1.57;0.60;;;16.80;99.70;;;;;;5051059;28;20481;-56
2021/05/25 09:35:44;;;;;;;1.77;0.80;;;17.40;96.10;;;;;;5050958;28;20456;-56
2021/05/25 09:38:13;;;;;;;2.20;0.80;;;17.70;97.50;;;;;;5051009;28;20490;-56
2021/05/25 09:40:42;;;;;;;2.23;0.80;;;17.30;94.60;;;;;;5051196;28;20451;-57
2021/05/25 09:43:17;;;;;;;1.57;0.70;;;16.80;95.00;;;;;;5050770;28;20479;-57
2021/05/25 09:45:58;;;;;;;1.63;0.80;;;15.60;95.10;;;;;;5050851;28;20481;-57
2021/05/25 09:48:25;;;;;;;1.20;0.70;;;15.20;97.00;;;;;;5030997;28;20518;-57
2021/05/25 09:50:53;;;;;;;2.37;0.67;;;14.90;96.20;;;;;;5039744;28;20822;-57
2021/05/25 09:53:21;;;;;;;1.33;0.70;;;14.60;98.00;;;;;;5050727;28;20900;-57
2021/05/25 09:55:53;;;;;;;1.77;0.70;;;14.60;96.70;;;;;;5053223;28;20456;-57
2021/05/25 09:58:22;;;;;;;1.00;0.80;;;14.60;97.60;;;;;;5052956;28;20552;-56
2021/05/25 10:00:49;;;;;;;2.80;0.90;;;14.30;97.10;;;;;;5054684;28;20486;-56
2021/05/25 10:03:20;;;;;;;1.50;0.77;;;14.00;97.70;;;;;;5064706;28;20470;-57
2021/05/25 10:05:49;;;;;;;1.43;0.70;;;13.90;98.70;;;;;;5070258;28;20497;-57
2021/05/25 10:08:17;;;;;;;4.10;1.00;;;14.00;98.30;;;;;;5059116;28;20828;-56
2021/05/25 10:10:45;;;;;;;2.60;0.87;;;14.00;99.40;;;;;;5074247;28;20476;-57
2021/05/25 10:13:13;;;;;;;4.43;1.00;;;14.30;99.90;;;;;;5071291;28;20474;-55
2021/05/25 10:15:42;;;;;;;1.80;0.80;;;14.40;99.30;;;;;;5054165;28;20452;-56
2021/05/25 10:20:54;;;;;;;0.97;0.90;;;14.50;99.10;;;;;;5042509;28;20478;-56
2021/05/25 10:23:20;;;;;;;1.50;1.00;;;14.50;97.60;;;;;;5052118;28;20468;-56
2021/05/25 10:25:52;;;;;;;3.03;0.77;;;15.00;99.70;;;;;;5051768;28;20534;-56
2021/05/25 10:28:19;;;;;;;2.10;1.13;;;15.50;99.10;;;;;;5053029;28;20515;-57
2021/05/25 10:30:49;;;;;;;1.00;0.60;;;15.70;99.80;;;;;;5065459;28;20444;-57
2021/05/25 10:33:32;;;;;;;1.87;0.80;;;16.00;97.40;;;;;;5052283;28;20613;-56
2021/05/25 10:36:08;;;;;;;0.80;0.60;;;16.00;97.50;;;;;;5046777;28;20975;-56
2021/05/25 10:38:53;;;;;;;0.70;0.50;;;15.90;96.20;;;;;;5053884;28;20453;-56
2021/05/25 10:41:26;;;;;;;1.10;0.60;;;16.70;97.40;;;;;;5053739;28;20530;-57
2021/05/25 10:43:53;;;;;;;1.00;0.70;;;17.50;95.30;;;;;;5053797;28;20570;-57
2021/05/25 10:46:24;;;;;;;0.97;0.70;;;18.40;95.70;;;;;;5053421;28;20501;-57
2021/05/25 10:48:56;;;;;;;2.87;0.80;;;18.40;94.20;;;;;;5067971;28;20644;-56
2021/05/25 10:51:45;;;;;;;2.53;0.80;;;17.90;93.80;;;;;;5062531;28;20456;-57
2021/05/25 10:54:30;;;;;;;3.00;1.00;;;17.30;94.50;;;;;;5053107;28;20471;-57
2021/05/25 10:57:00;;;;;;;3.70;0.90;;;16.80;95.00;;;;;;5053755;28;20482;-56
2021/05/25 10:59:26;;;;;;;1.00;0.83;;;16.20;94.70;;;;;;5053547;28;20466;-56
2021/05/25 11:01:57;;;;;;;0.80;0.70;;;16.20;94.70;;;;;;5053511;28;20443;-56
2021/05/25 11:04:25;;;;;;;1.80;0.90;;;16.20;94.00;;;;;;5064171;28;20511;-56
2021/05/25 11:06:52;;;;;;;6.13;0.90;;;15.90;94.10;;;;;;5052292;28;20447;-56
2021/05/25 11:09:23;;;;;;;1.27;0.80;;;15.60;94.60;;;;;;5053477;28;20492;-57
2021/05/25 11:12:12;;;;;;;3.40;0.90;;;15.50;92.70;;;;;;5053255;28;20456;-57
2021/05/25 11:14:59;;;;;;;1.00;0.60;;;15.10;93.90;;;;;;5052655;28;20443;-56
2021/05/25 11:17:29;;;;;;;2.30;0.80;;;14.70;94.50;;;;;;5048322;28;20450;-56
2021/05/25 11:20:08;;;;;;;3.93;1.30;;;14.40;95.00;;;;;;5054086;28;20976;-56
2021/05/25 11:22:35;;;;;;;1.20;0.70;;;14.40;95.20;;;;;;5052528;28;20467;-56
2021/05/25 11:25:04;;;;;;;1.33;0.73;;;14.50;95.90;;;;;;5052788;28;20799;-56
2021/05/25 11:27:35;;;;;;;2.87;0.80;;;14.80;96.50;;;;;;5052822;28;20539;-56
2021/05/25 11:30:06;;;;;;;1.63;0.90;;;14.70;94.40;;;;;;5052969;28;20451;-56
2021/05/25 11:32:38;;;;;;;0.97;0.80;;;14.60;94.50;;;;;;5032766;28;20821;-56
2021/05/25 11:35:08;;;;;;;4.20;0.90;;;14.60;96.10;;;;;;5062352;28;20447;-56
2021/05/25 11:37:36;;;;;;;0.97;0.70;;;14.90;94.40;;;;;;5052699;28;20450;-56
2021/05/25 11:40:05;;;;;;;1.27;0.70;;;15.20;94.30;;;;;;5052767;28;20448;-56
2021/05/25 11:42:33;;;;;;;1.77;0.90;;;15.40;93.70;;;;;;5052767;28;20466;-56
2021/05/25 11:45:00;;;;;;;1.77;0.87;;;15.60;94.90;;;;;;5052341;28;20941;-56
2021/05/25 11:47:26;;;;;;;1.83;1.47;;;15.90;95.30;;;;;;5053746;28;20452;-56
2021/05/25 11:49:53;;;;;;;2.53;1.00;;;16.20;94.50;;;;;;5054402;28;20451;-56
2021/05/25 11:52:22;;;;;;;1.43;0.80;;;16.00;91.40;;;;;;5050633;28;20471;-56
2021/05/25 11:54:50;;;;;;;1.40;0.60;;;16.40;94.00;;;;;;5060069;28;20462;-56
2021/05/25 11:57:27;;;;;;;1.83;0.90;;;16.70;91.00;;;;;;5052799;28;20452;-57
2021/05/25 11:59:56;;;;;;;2.00;0.70;;;16.40;91.40;;;;;;5052607;28;20459;-57
2021/05/25 12:02:24;;;;;;;1.57;0.80;;;16.40;89.90;;;;;;5052504;28;20443;-56
2021/05/25 12:05:07;;;;;;;1.70;0.70;;;16.70;92.30;;;;;;5052189;28;20451;-57
2021/05/25 12:07:34;;;;;;;1.17;0.70;;;16.70;90.70;;;;;;5053255;28;20475;-57
2021/05/25 12:10:03;;;;;;;0.90;0.80;;;16.40;90.50;;;;;;5052387;28;20478;-56
2021/05/25 12:12:30;;;;;;;2.07;0.80;;;16.20;92.10;;;;;;5052459;28;20471;-57
2021/05/25 12:15:10;;;;;;;1.73;0.70;;;16.10;89.50;;;;;;5052331;28;20443;-57
2021/05/25 12:17:39;;;;;;;2.00;0.70;;;16.10;90.20;;;;;;5052122;28;20450;-57
2021/05/25 12:20:08;;;;;;;2.40;1.00;;;15.80;90.70;;;;;;5053471;28;20443;-57
2021/05/25 12:22:37;;;;;;;2.30;0.70;;;15.70;91.10;;;;;;5059364;28;20479;-57
2021/05/25 12:25:31;;;;;;;2.27;0.70;;;15.80;92.00;;;;;;5064583;28;20500;-56
2021/05/25 12:28:08;;;;;;;1.47;0.60;;;16.10;89.00;;;;;;5063664;28;20475;-56
2021/05/25 12:30:37;;;;;;;2.07;0.77;;;16.30;88.10;;;;;;5052216;28;20825;-57
2021/05/25 12:33:05;;;;;;;3.83;0.80;;;16.10;90.20;;;;;;5051904;28;20486;-56
2021/05/25 12:35:32;;;;;;;1.93;0.80;;;15.90;88.80;;;;;;5051803;28;20455;-56
2021/05/25 12:38:10;;;;;;;1.17;0.63;;;15.80;90.60;;;;;;5051978;28;20505;-56
2021/05/25 12:40:37;;;;;;;0.80;0.73;;;15.90;90.20;;;;;;5055370;28;20842;-56
2021/05/25 12:43:18;;;;;;;1.83;0.90;;;15.70;90.90;;;;;;5051456;28;20472;-56
2021/05/25 12:45:46;;;;;;;3.47;0.87;;;15.80;90.80;;;;;;5051698;28;20504;-56
2021/05/25 12:48:13;;;;;;;1.00;0.80;;;16.10;90.60;;;;;;5051746;28;20533;-56
2021/05/25 12:50:41;;;;;;;3.83;0.90;;;16.00;91.20;;;;;;5051875;28;20456;-56
2021/05/25 12:53:10;;;;;;;1.43;0.80;;;15.90;90.00;;;;;;5051639;28;20969;-56
2021/05/25 12:55:39;;;;;;;1.03;0.80;;;15.60;89.70;;;;;;5063748;28;20454;-56